sensor_id;sensor_type;location;lat;lon;timestamp;pressure;altitude;pressure_sealevel;temperature
77331;BMP280;66405;48.328;7.820;2023-03-11T00:00:49;99068.13;;;6.51
77331;BMP280;66405;48.328;7.820;2023-03-11T00:03:16;99055.56;;;6.48
77331;BMP280;66405;48.328;7.820;2023-03-11T00:05:44;99056.44;;;6.45
77331;BMP280;66405;48.328;7.820;2023-03-11T00:08:13;99066.41;;;6.44
77331;BMP280;66405;48.328;7.820;2023-03-11T00:10:41;99071.75;;;6.44
77331;BMP280;66405;48.328;7.820;2023-03-11T00:13:08;99064.47;;;6.45
77331;BMP280;66405;48.328;7.820;2023-03-11T00:15:35;99056.44;;;6.45
77331;BMP280;66405;48.328;7.820;2023-03-11T00:18:00;99056.00;;;6.46
77331;BMP280;66405;48.328;7.820;2023-03-11T00:20:30;99062.13;;;6.47
77331;BMP280;66405;48.328;7.820;2023-03-11T00:22:56;99043.34;;;6.47
77331;BMP280;66405;48.328;7.820;2023-03-11T00:25:24;99041.84;;;6.46
77331;BMP280;66405;48.328;7.820;2023-03-11T00:27:49;99035.81;;;6.42
77331;BMP280;66405;48.328;7.820;2023-03-11T00:30:17;99037.47;;;6.39
77331;BMP280;66405;48.328;7.820;2023-03-11T00:32:43;99051.31;;;6.37
77331;BMP280;66405;48.328;7.820;2023-03-11T00:35:13;99058.19;;;6.38
77331;BMP280;66405;48.328;7.820;2023-03-11T00:37:40;99066.31;;;6.35
77331;BMP280;66405;48.328;7.820;2023-03-11T00:40:06;99075.56;;;6.34
77331;BMP280;66405;48.328;7.820;2023-03-11T00:42:34;99065.25;;;6.32
77331;BMP280;66405;48.328;7.820;2023-03-11T00:44:59;99060.47;;;6.27
77331;BMP280;66405;48.328;7.820;2023-03-11T00:47:25;99064.84;;;6.21
77331;BMP280;66405;48.328;7.820;2023-03-11T00:49:50;99051.97;;;6.16
77331;BMP280;66405;48.328;7.820;2023-03-11T00:52:16;99049.09;;;6.10
77331;BMP280;66405;48.328;7.820;2023-03-11T00:54:42;99058.41;;;6.05
77331;BMP280;66405;48.328;7.820;2023-03-11T00:57:08;99059.69;;;6.01
77331;BMP280;66405;48.328;7.820;2023-03-11T00:59:34;99065.19;;;5.97
77331;BMP280;66405;48.328;7.820;2023-03-11T01:01:59;99049.94;;;5.94
77331;BMP280;66405;48.328;7.820;2023-03-11T01:04:25;99033.97;;;5.91
77331;BMP280;66405;48.328;7.820;2023-03-11T01:06:51;99031.38;;;5.87
77331;BMP280;66405;48.328;7.820;2023-03-11T01:09:16;99046.09;;;5.82
77331;BMP280;66405;48.328;7.820;2023-03-11T01:11:42;99065.72;;;5.79
77331;BMP280;66405;48.328;7.820;2023-03-11T01:14:08;99081.16;;;5.75
77331;BMP280;66405;48.328;7.820;2023-03-11T01:16:33;99077.06;;;5.70
77331;BMP280;66405;48.328;7.820;2023-03-11T01:18:59;99073.41;;;5.64
77331;BMP280;66405;48.328;7.820;2023-03-11T01:21:25;99072.00;;;5.60
77331;BMP280;66405;48.328;7.820;2023-03-11T01:23:50;99070.94;;;5.57
77331;BMP280;66405;48.328;7.820;2023-03-11T01:26:16;99067.19;;;5.54
77331;BMP280;66405;48.328;7.820;2023-03-11T01:28:41;99074.16;;;5.52
77331;BMP280;66405;48.328;7.820;2023-03-11T01:31:08;99072.66;;;5.51
77331;BMP280;66405;48.328;7.820;2023-03-11T01:33:34;99090.75;;;5.47
77331;BMP280;66405;48.328;7.820;2023-03-11T01:36:00;99092.78;;;5.43
77331;BMP280;66405;48.328;7.820;2023-03-11T01:38:26;99089.84;;;5.37
77331;BMP280;66405;48.328;7.820;2023-03-11T01:40:52;99094.44;;;5.36
77331;BMP280;66405;48.328;7.820;2023-03-11T01:43:54;99070.03;;;5.34
77331;BMP280;66405;48.328;7.820;2023-03-11T01:46:26;99067.78;;;5.33
77331;BMP280;66405;48.328;7.820;2023-03-11T01:48:57;99064.34;;;5.32
77331;BMP280;66405;48.328;7.820;2023-03-11T01:53:52;99057.81;;;5.33
77331;BMP280;66405;48.328;7.820;2023-03-11T01:56:20;99062.41;;;5.33
77331;BMP280;66405;48.328;7.820;2023-03-11T01:58:49;99072.41;;;5.32
77331;BMP280;66405;48.328;7.820;2023-03-11T02:01:17;99076.25;;;5.31
77331;BMP280;66405;48.328;7.820;2023-03-11T02:03:43;99069.03;;;5.28
77331;BMP280;66405;48.328;7.820;2023-03-11T02:06:13;99067.97;;;5.26
77331;BMP280;66405;48.328;7.820;2023-03-11T02:08:41;99060.34;;;5.24
77331;BMP280;66405;48.328;7.820;2023-03-11T02:11:11;99053.91;;;5.21
77331;BMP280;66405;48.328;7.820;2023-03-11T02:13:40;99056.38;;;5.16
77331;BMP280;66405;48.328;7.820;2023-03-11T02:16:06;99060.31;;;5.11
77331;BMP280;66405;48.328;7.820;2023-03-11T02:18:32;99068.84;;;5.06
77331;BMP280;66405;48.328;7.820;2023-03-11T02:29:14;99068.81;;;4.93
77331;BMP280;66405;48.328;7.820;2023-03-11T02:31:41;99077.25;;;4.91
77331;BMP280;66405;48.328;7.820;2023-03-11T02:34:15;99077.69;;;4.90
77331;BMP280;66405;48.328;7.820;2023-03-11T02:36:42;99088.38;;;4.90
77331;BMP280;66405;48.328;7.820;2023-03-11T02:39:10;99089.13;;;4.90
77331;BMP280;66405;48.328;7.820;2023-03-11T02:41:39;99087.63;;;4.89
77331;BMP280;66405;48.328;7.820;2023-03-11T02:44:08;99088.38;;;4.90
77331;BMP280;66405;48.328;7.820;2023-03-11T02:46:36;99075.75;;;4.90
77331;BMP280;66405;48.328;7.820;2023-03-11T02:49:03;99068.13;;;4.89
77331;BMP280;66405;48.328;7.820;2023-03-11T02:51:31;99064.72;;;4.88
77331;BMP280;66405;48.328;7.820;2023-03-11T02:53:59;99054.75;;;4.89
77331;BMP280;66405;48.328;7.820;2023-03-11T02:56:27;99060.53;;;4.87
77331;BMP280;66405;48.328;7.820;2023-03-11T02:58:53;99066.72;;;4.84
77331;BMP280;66405;48.328;7.820;2023-03-11T03:01:19;99075.91;;;4.83
77331;BMP280;66405;48.328;7.820;2023-03-11T03:03:46;99072.91;;;4.81
77331;BMP280;66405;48.328;7.820;2023-03-11T03:06:12;99069.06;;;4.82
77331;BMP280;66405;48.328;7.820;2023-03-11T03:08:38;99042.00;;;4.80
77331;BMP280;66405;48.328;7.820;2023-03-11T03:11:04;99038.97;;;4.78
77331;BMP280;66405;48.328;7.820;2023-03-11T03:13:29;99031.34;;;4.76
77331;BMP280;66405;48.328;7.820;2023-03-11T03:15:57;99035.97;;;4.76
77331;BMP280;66405;48.328;7.820;2023-03-11T03:18:23;99045.59;;;4.73
77331;BMP280;66405;48.328;7.820;2023-03-11T03:20:50;99049.09;;;4.70
77331;BMP280;66405;48.328;7.820;2023-03-11T03:23:16;99048.75;;;4.68
77331;BMP280;66405;48.328;7.820;2023-03-11T03:25:42;99044.25;;;4.65
77331;BMP280;66405;48.328;7.820;2023-03-11T03:28:10;99054.66;;;4.63
77331;BMP280;66405;48.328;7.820;2023-03-11T03:30:37;99068.41;;;4.62
77331;BMP280;66405;48.328;7.820;2023-03-11T03:33:03;99074.63;;;4.58
77331;BMP280;66405;48.328;7.820;2023-03-11T03:35:30;99072.78;;;4.55
77331;BMP280;66405;48.328;7.820;2023-03-11T03:38:03;99076.28;;;4.52
77331;BMP280;66405;48.328;7.820;2023-03-11T03:40:28;99079.03;;;4.49
77331;BMP280;66405;48.328;7.820;2023-03-11T03:42:57;99086.44;;;4.45
77331;BMP280;66405;48.328;7.820;2023-03-11T03:45:23;99094.53;;;4.41
77331;BMP280;66405;48.328;7.820;2023-03-11T03:47:51;99104.88;;;4.39
77331;BMP280;66405;48.328;7.820;2023-03-11T03:50:18;99109.16;;;4.36
77331;BMP280;66405;48.328;7.820;2023-03-11T03:52:46;99098.09;;;4.34
77331;BMP280;66405;48.328;7.820;2023-03-11T03:55:11;99088.22;;;4.31
77331;BMP280;66405;48.328;7.820;2023-03-11T03:57:37;99092.50;;;4.28
77331;BMP280;66405;48.328;7.820;2023-03-11T04:00:05;99103.25;;;4.25
77331;BMP280;66405;48.328;7.820;2023-03-11T04:02:39;99091.50;;;4.22
77331;BMP280;66405;48.328;7.820;2023-03-11T04:05:07;99091.16;;;4.20
77331;BMP280;66405;48.328;7.820;2023-03-11T04:07:34;99082.06;;;4.18
77331;BMP280;66405;48.328;7.820;2023-03-11T04:10:02;99074.84;;;4.15
77331;BMP280;66405;48.328;7.820;2023-03-11T04:12:30;99078.34;;;4.11
77331;BMP280;66405;48.328;7.820;2023-03-11T04:14:56;99086.44;;;4.08
77331;BMP280;66405;48.328;7.820;2023-03-11T04:17:22;99089.19;;;4.04
77331;BMP280;66405;48.328;7.820;2023-03-11T04:19:49;99090.81;;;4.02
77331;BMP280;66405;48.328;7.820;2023-03-11T04:22:14;99099.97;;;4.01
77331;BMP280;66405;48.328;7.820;2023-03-11T04:24:40;99087.84;;;3.96
77331;BMP280;66405;48.328;7.820;2023-03-11T04:27:06;99098.19;;;3.94
77331;BMP280;66405;48.328;7.820;2023-03-11T04:29:32;99101.69;;;3.91
77331;BMP280;66405;48.328;7.820;2023-03-11T04:31:58;99104.44;;;3.87
77331;BMP280;66405;48.328;7.820;2023-03-11T04:34:23;99110.63;;;3.84
77331;BMP280;66405;48.328;7.820;2023-03-11T04:36:52;99110.66;;;3.80
77331;BMP280;66405;48.328;7.820;2023-03-11T04:39:20;99112.69;;;3.76
77331;BMP280;66405;48.328;7.820;2023-03-11T04:41:46;99121.94;;;3.72
77331;BMP280;66405;48.328;7.820;2023-03-11T04:44:15;99131.19;;;3.67
77331;BMP280;66405;48.328;7.820;2023-03-11T04:46:42;99128.16;;;3.65
77331;BMP280;66405;48.328;7.820;2023-03-11T04:49:08;99132.78;;;3.61
77331;BMP280;66405;48.328;7.820;2023-03-11T04:51:35;99130.19;;;3.57
77331;BMP280;66405;48.328;7.820;2023-03-11T04:54:00;99139.78;;;3.55
77331;BMP280;66405;48.328;7.820;2023-03-11T04:56:28;99136.78;;;3.53
77331;BMP280;66405;48.328;7.820;2023-03-11T04:58:53;99137.19;;;3.51
77331;BMP280;66405;48.328;7.820;2023-03-11T05:01:20;99131.50;;;3.49
77331;BMP280;66405;48.328;7.820;2023-03-11T05:03:45;99139.94;;;3.47
77331;BMP280;66405;48.328;7.820;2023-03-11T05:06:11;99132.34;;;3.46
77331;BMP280;66405;48.328;7.820;2023-03-11T05:08:37;99128.16;;;3.45
77331;BMP280;66405;48.328;7.820;2023-03-11T05:11:03;99124.72;;;3.44
77331;BMP280;66405;48.328;7.820;2023-03-11T05:13:29;99113.69;;;3.42
77331;BMP280;66405;48.328;7.820;2023-03-11T05:15:55;99118.69;;;3.40
77331;BMP280;66405;48.328;7.820;2023-03-11T05:18:21;99104.56;;;3.40
77331;BMP280;66405;48.328;7.820;2023-03-11T05:20:48;99108.03;;;3.37
77331;BMP280;66405;48.328;7.820;2023-03-11T05:23:14;99106.56;;;3.36
77331;BMP280;66405;48.328;7.820;2023-03-11T05:25:40;99105.03;;;3.35
77331;BMP280;66405;48.328;7.820;2023-03-11T05:28:06;99104.28;;;3.34
77331;BMP280;66405;48.328;7.820;2023-03-11T05:30:35;99124.13;;;3.33
77331;BMP280;66405;48.328;7.820;2023-03-11T05:33:02;99113.13;;;3.31
77331;BMP280;66405;48.328;7.820;2023-03-11T05:35:27;99122.72;;;3.28
77331;BMP280;66405;48.328;7.820;2023-03-11T05:37:54;99122.72;;;3.28
77331;BMP280;66405;48.328;7.820;2023-03-11T05:40:20;99121.19;;;3.27
77331;BMP280;66405;48.328;7.820;2023-03-11T05:42:46;99126.22;;;3.25
77331;BMP280;66405;48.328;7.820;2023-03-11T05:45:13;99119.72;;;3.26
77331;BMP280;66405;48.328;7.820;2023-03-11T05:47:40;99119.34;;;3.24
77331;BMP280;66405;48.328;7.820;2023-03-11T05:50:10;99120.88;;;3.25
77331;BMP280;66405;48.328;7.820;2023-03-11T05:52:36;99124.28;;;3.26
77331;BMP280;66405;48.328;7.820;2023-03-11T05:55:02;99133.44;;;3.25
77331;BMP280;66405;48.328;7.820;2023-03-11T05:57:29;99126.22;;;3.25
77331;BMP280;66405;48.328;7.820;2023-03-11T05:59:55;99123.88;;;3.27
77331;BMP280;66405;48.328;7.820;2023-03-11T06:02:21;99120.78;;;3.29
77331;BMP280;66405;48.328;7.820;2023-03-11T06:04:47;99119.63;;;3.30
77331;BMP280;66405;48.328;7.820;2023-03-11T06:07:13;99123.38;;;3.33
77331;BMP280;66405;48.328;7.820;2023-03-11T06:09:41;99124.91;;;3.34
77331;BMP280;66405;48.328;7.820;2023-03-11T06:12:10;99132.09;;;3.37
77331;BMP280;66405;48.328;7.820;2023-03-11T06:14:47;99148.06;;;3.40
77331;BMP280;66405;48.328;7.820;2023-03-11T06:17:13;99146.88;;;3.41
77331;BMP280;66405;48.328;7.820;2023-03-11T06:19:39;99146.09;;;3.44
77331;BMP280;66405;48.328;7.820;2023-03-11T06:22:05;99150.63;;;3.47
77331;BMP280;66405;48.328;7.820;2023-03-11T06:24:31;99162.34;;;3.54
77331;BMP280;66405;48.328;7.820;2023-03-11T06:26:56;99162.66;;;3.56
77331;BMP280;66405;48.328;7.820;2023-03-11T06:29:24;99166.38;;;3.62
77331;BMP280;66405;48.328;7.820;2023-03-11T06:31:52;99168.59;;;3.67
77331;BMP280;66405;48.328;7.820;2023-03-11T06:34:17;99160.09;;;3.72
77331;BMP280;66405;48.328;7.820;2023-03-11T06:36:43;99172.56;;;3.79
77331;BMP280;66405;48.328;7.820;2023-03-11T06:39:12;99174.69;;;3.88
77331;BMP280;66405;48.328;7.820;2023-03-11T06:41:43;99179.09;;;3.98
77331;BMP280;66405;48.328;7.820;2023-03-11T06:44:10;99183.84;;;4.07
77331;BMP280;66405;48.328;7.820;2023-03-11T06:46:37;99182.91;;;4.17
77331;BMP280;66405;48.328;7.820;2023-03-11T06:49:03;99185.75;;;4.26
77331;BMP280;66405;48.328;7.820;2023-03-11T06:51:29;99195.06;;;4.38
77331;BMP280;66405;48.328;7.820;2023-03-11T06:53:55;99206.72;;;4.48
77331;BMP280;66405;48.328;7.820;2023-03-11T06:56:22;99198.06;;;4.61
77331;BMP280;66405;48.328;7.820;2023-03-11T06:58:56;99197.38;;;4.73
77331;BMP280;66405;48.328;7.820;2023-03-11T07:01:25;99198.66;;;4.85
77331;BMP280;66405;48.328;7.820;2023-03-11T07:03:53;99214.91;;;4.94
77331;BMP280;66405;48.328;7.820;2023-03-11T07:06:23;99203.56;;;5.03
77331;BMP280;66405;48.328;7.820;2023-03-11T07:08:51;99195.72;;;5.12
77331;BMP280;66405;48.328;7.820;2023-03-11T07:11:22;99207.00;;;5.20
77331;BMP280;66405;48.328;7.820;2023-03-11T07:13:53;99213.28;;;5.30
77331;BMP280;66405;48.328;7.820;2023-03-11T07:16:25;99222.75;;;5.34
77331;BMP280;66405;48.328;7.820;2023-03-11T07:18:57;99217.59;;;5.40
77331;BMP280;66405;48.328;7.820;2023-03-11T07:21:23;99216.03;;;5.43
77331;BMP280;66405;48.328;7.820;2023-03-11T07:23:53;99227.75;;;5.49
77331;BMP280;66405;48.328;7.820;2023-03-11T07:26:20;99234.06;;;5.55
77331;BMP280;66405;48.328;7.820;2023-03-11T07:28:46;99246.91;;;5.64
77331;BMP280;66405;48.328;7.820;2023-03-11T07:31:16;99232.22;;;5.68
77331;BMP280;66405;48.328;7.820;2023-03-11T07:33:42;99232.94;;;5.69
77331;BMP280;66405;48.328;7.820;2023-03-11T07:36:15;99234.06;;;5.71
77331;BMP280;66405;48.328;7.820;2023-03-11T07:38:42;99248.03;;;5.79
77331;BMP280;66405;48.328;7.820;2023-03-11T07:41:09;99255.47;;;5.88
77331;BMP280;66405;48.328;7.820;2023-03-11T07:43:38;99260.28;;;5.93
77331;BMP280;66405;48.328;7.820;2023-03-11T07:46:13;99265.47;;;6.00
77331;BMP280;66405;48.328;7.820;2023-03-11T07:48:49;99258.19;;;6.14
77331;BMP280;66405;48.328;7.820;2023-03-11T07:51:17;99249.31;;;6.30
77331;BMP280;66405;48.328;7.820;2023-03-11T07:53:43;99245.47;;;6.44
77331;BMP280;66405;48.328;7.820;2023-03-11T07:56:11;99236.69;;;6.56
77331;BMP280;66405;48.328;7.820;2023-03-11T07:58:37;99242.38;;;6.71
77331;BMP280;66405;48.328;7.820;2023-03-11T08:01:05;99244.00;;;6.81
77331;BMP280;66405;48.328;7.820;2023-03-11T08:03:34;99259.44;;;6.90
77331;BMP280;66405;48.328;7.820;2023-03-11T08:06:14;99261.47;;;6.99
77331;BMP280;66405;48.328;7.820;2023-03-11T08:08:40;99257.91;;;7.02
77331;BMP280;66405;48.328;7.820;2023-03-11T08:11:06;99255.00;;;7.09
77331;BMP280;66405;48.328;7.820;2023-03-11T08:13:32;99269.94;;;7.23
77331;BMP280;66405;48.328;7.820;2023-03-11T08:15:58;99274.94;;;7.34
77331;BMP280;66405;48.328;7.820;2023-03-11T08:18:28;99280.09;;;7.41
77331;BMP280;66405;48.328;7.820;2023-03-11T08:20:55;99269.97;;;7.45
77331;BMP280;66405;48.328;7.820;2023-03-11T08:23:21;99272.44;;;7.52
77331;BMP280;66405;48.328;7.820;2023-03-11T08:25:46;99268.00;;;7.59
77331;BMP280;66405;48.328;7.820;2023-03-11T08:28:12;99260.50;;;7.76
77331;BMP280;66405;48.328;7.820;2023-03-11T08:30:38;99273.84;;;7.79
77331;BMP280;66405;48.328;7.820;2023-03-11T08:33:04;99270.53;;;7.75
77331;BMP280;66405;48.328;7.820;2023-03-11T08:35:30;99277.88;;;7.84
77331;BMP280;66405;48.328;7.820;2023-03-11T08:37:56;99285.94;;;7.84
77331;BMP280;66405;48.328;7.820;2023-03-11T08:40:21;99281.97;;;7.89
77331;BMP280;66405;48.328;7.820;2023-03-11T08:42:47;99287.56;;;8.03
77331;BMP280;66405;48.328;7.820;2023-03-11T08:45:13;99279.44;;;8.16
77331;BMP280;66405;48.328;7.820;2023-03-11T08:47:38;99278.00;;;8.25
77331;BMP280;66405;48.328;7.820;2023-03-11T08:50:10;99291.94;;;8.32
77331;BMP280;66405;48.328;7.820;2023-03-11T08:52:36;99292.09;;;8.38
77331;BMP280;66405;48.328;7.820;2023-03-11T08:55:02;99291.41;;;8.47
77331;BMP280;66405;48.328;7.820;2023-03-11T08:57:30;99294.00;;;8.60
77331;BMP280;66405;48.328;7.820;2023-03-11T08:59:57;99299.59;;;8.65
77331;BMP280;66405;48.328;7.820;2023-03-11T09:02:24;99300.47;;;8.72
77331;BMP280;66405;48.328;7.820;2023-03-11T09:04:52;99302.00;;;8.82
77331;BMP280;66405;48.328;7.820;2023-03-11T09:07:17;99301.47;;;8.96
77331;BMP280;66405;48.328;7.820;2023-03-11T09:09:43;99305.94;;;8.99
77331;BMP280;66405;48.328;7.820;2023-03-11T09:12:09;99305.84;;;9.03
77331;BMP280;66405;48.328;7.820;2023-03-11T09:14:39;99319.31;;;9.03
77331;BMP280;66405;48.328;7.820;2023-03-11T09:17:05;99317.69;;;9.15
77331;BMP280;66405;48.328;7.820;2023-03-11T09:19:30;99321.44;;;9.27
77331;BMP280;66405;48.328;7.820;2023-03-11T09:21:59;99328.66;;;9.39
77331;BMP280;66405;48.328;7.820;2023-03-11T09:24:25;99328.97;;;9.60
77331;BMP280;66405;48.328;7.820;2023-03-11T09:26:50;99335.22;;;9.84
77331;BMP280;66405;48.328;7.820;2023-03-11T09:29:16;99334.19;;;10.00
77331;BMP280;66405;48.328;7.820;2023-03-11T09:31:41;99331.31;;;10.13
77331;BMP280;66405;48.328;7.820;2023-03-11T09:34:07;99327.53;;;10.20
77331;BMP280;66405;48.328;7.820;2023-03-11T09:36:32;99321.03;;;10.36
77331;BMP280;66405;48.328;7.820;2023-03-11T09:38:59;99322.31;;;10.59
77331;BMP280;66405;48.328;7.820;2023-03-11T09:41:32;99322.16;;;10.87
77331;BMP280;66405;48.328;7.820;2023-03-11T09:52:10;99324.94;;;11.65
77331;BMP280;66405;48.328;7.820;2023-03-11T09:54:44;99325.31;;;11.88
77331;BMP280;66405;48.328;7.820;2023-03-11T09:57:15;99320.53;;;12.13
77331;BMP280;66405;48.328;7.820;2023-03-11T09:59:43;99320.13;;;12.35
77331;BMP280;66405;48.328;7.820;2023-03-11T10:02:19;99320.63;;;12.54
77331;BMP280;66405;48.328;7.820;2023-03-11T10:04:58;99314.19;;;12.51
77331;BMP280;66405;48.328;7.820;2023-03-11T10:07:32;99312.50;;;12.54
77331;BMP280;66405;48.328;7.820;2023-03-11T10:09:58;99309.41;;;12.61
77331;BMP280;66405;48.328;7.820;2023-03-11T10:20:21;99310.88;;;13.24
77331;BMP280;66405;48.328;7.820;2023-03-11T10:25:41;99319.22;;;13.67
77331;BMP280;66405;48.328;7.820;2023-03-11T10:28:16;99313.19;;;13.57
77331;BMP280;66405;48.328;7.820;2023-03-11T10:30:49;99324.44;;;13.71
77331;BMP280;66405;48.328;7.820;2023-03-11T10:33:53;99321.34;;;13.57
77331;BMP280;66405;48.328;7.820;2023-03-11T10:36:13;99323.38;;;13.63
77331;BMP280;66405;48.328;7.820;2023-03-11T10:38:45;99324.56;;;13.88
77331;BMP280;66405;48.328;7.820;2023-03-11T10:43:51;99326.78;;;14.21
77331;BMP280;66405;48.328;7.820;2023-03-11T10:46:24;99315.56;;;14.08
77331;BMP280;66405;48.328;7.820;2023-03-11T10:48:51;99315.66;;;14.14
77331;BMP280;66405;48.328;7.820;2023-03-11T10:51:18;99313.03;;;14.31
77331;BMP280;66405;48.328;7.820;2023-03-11T10:53:54;99317.06;;;14.52
77331;BMP280;66405;48.328;7.820;2023-03-11T10:58:57;99297.47;;;14.91
77331;BMP280;66405;48.328;7.820;2023-03-11T11:01:23;99305.44;;;15.18
77331;BMP280;66405;48.328;7.820;2023-03-11T11:03:53;99297.81;;;15.39
77331;BMP280;66405;48.328;7.820;2023-03-11T11:06:33;99295.88;;;15.45
77331;BMP280;66405;48.328;7.820;2023-03-11T11:09:14;99295.38;;;15.75
77331;BMP280;66405;48.328;7.820;2023-03-11T11:11:41;99295.59;;;15.88
77331;BMP280;66405;48.328;7.820;2023-03-11T11:14:07;99295.34;;;15.86
77331;BMP280;66405;48.328;7.820;2023-03-11T11:16:35;99288.91;;;15.78
77331;BMP280;66405;48.328;7.820;2023-03-11T11:19:03;99288.44;;;15.57
77331;BMP280;66405;48.328;7.820;2023-03-11T11:21:48;99291.91;;;15.63
77331;BMP280;66405;48.328;7.820;2023-03-11T11:24:27;99296.34;;;15.89
77331;BMP280;66405;48.328;7.820;2023-03-11T11:27:20;99291.78;;;16.31
77331;BMP280;66405;48.328;7.820;2023-03-11T11:29:47;99293.56;;;16.81
77331;BMP280;66405;48.328;7.820;2023-03-11T11:32:26;99300.25;;;16.80
77331;BMP280;66405;48.328;7.820;2023-03-11T11:34:57;99306.75;;;16.72
77331;BMP280;66405;48.328;7.820;2023-03-11T11:37:24;99309.75;;;16.68
77331;BMP280;66405;48.328;7.820;2023-03-11T11:39:56;99305.66;;;16.33
77331;BMP280;66405;48.328;7.820;2023-03-11T11:42:25;99290.53;;;16.32
77331;BMP280;66405;48.328;7.820;2023-03-11T11:44:57;99289.97;;;16.56
77331;BMP280;66405;48.328;7.820;2023-03-11T11:47:32;99289.50;;;16.52
77331;BMP280;66405;48.328;7.820;2023-03-11T11:50:00;99298.72;;;16.32
77331;BMP280;66405;48.328;7.820;2023-03-11T11:52:35;99291.38;;;15.87
77331;BMP280;66405;48.328;7.820;2023-03-11T11:55:03;99293.34;;;15.24
77331;BMP280;66405;48.328;7.820;2023-03-11T11:57:29;99281.28;;;14.65
77331;BMP280;66405;48.328;7.820;2023-03-11T11:59:54;99287.53;;;14.77
77331;BMP280;66405;48.328;7.820;2023-03-11T12:05:16;99287.44;;;15.60
77331;BMP280;66405;48.328;7.820;2023-03-11T12:15:28;99264.59;;;17.45
77331;BMP280;66405;48.328;7.820;2023-03-11T12:17:59;99275.06;;;17.71
77331;BMP280;66405;48.328;7.820;2023-03-11T12:20:31;99269.03;;;17.97
77331;BMP280;66405;48.328;7.820;2023-03-11T12:26:19;99267.41;;;18.32
77331;BMP280;66405;48.328;7.820;2023-03-11T12:31:46;99256.28;;;18.81
77331;BMP280;66405;48.328;7.820;2023-03-11T12:34:14;99256.91;;;19.07
77331;BMP280;66405;48.328;7.820;2023-03-11T12:36:44;99252.38;;;19.42
77331;BMP280;66405;48.328;7.820;2023-03-11T12:39:27;99249.50;;;19.87
77331;BMP280;66405;48.328;7.820;2023-03-11T12:44:39;99250.78;;;20.48
77331;BMP280;66405;48.328;7.820;2023-03-11T12:49:45;99243.25;;;20.27
77331;BMP280;66405;48.328;7.820;2023-03-11T12:54:44;99236.09;;;20.45
77331;BMP280;66405;48.328;7.820;2023-03-11T13:08:44;99248.94;;;21.63
77331;BMP280;66405;48.328;7.820;2023-03-11T13:17:22;99250.97;;;22.15
77331;BMP280;66405;48.328;7.820;2023-03-11T13:19:51;99248.56;;;22.03
77331;BMP280;66405;48.328;7.820;2023-03-11T13:22:41;99248.28;;;22.45
77331;BMP280;66405;48.328;7.820;2023-03-11T13:25:35;99250.84;;;23.21
77331;BMP280;66405;48.328;7.820;2023-03-11T13:31:08;99258.91;;;23.90
77331;BMP280;66405;48.328;7.820;2023-03-11T13:33:44;99254.69;;;24.90
77331;BMP280;66405;48.328;7.820;2023-03-11T13:36:39;99252.53;;;25.85
77331;BMP280;66405;48.328;7.820;2023-03-11T13:39:48;99252.44;;;26.86
77331;BMP280;66405;48.328;7.820;2023-03-11T13:42:17;99245.25;;;27.61
77331;BMP280;66405;48.328;7.820;2023-03-11T13:44:44;99237.72;;;28.15
77331;BMP280;66405;48.328;7.820;2023-03-11T13:47:15;99234.03;;;28.86
77331;BMP280;66405;48.328;7.820;2023-03-11T13:52:11;99228.91;;;30.20
77331;BMP280;66405;48.328;7.820;2023-03-11T13:54:43;99237.13;;;30.93
77331;BMP280;66405;48.328;7.820;2023-03-11T13:57:29;99235.41;;;31.53
77331;BMP280;66405;48.328;7.820;2023-03-11T14:00:11;99231.81;;;31.65
77331;BMP280;66405;48.328;7.820;2023-03-11T14:02:50;99232.13;;;31.85
77331;BMP280;66405;48.328;7.820;2023-03-11T14:05:21;99239.88;;;31.58
77331;BMP280;66405;48.328;7.820;2023-03-11T14:07:47;99239.34;;;30.57
77331;BMP280;66405;48.328;7.820;2023-03-11T14:12:41;99245.47;;;27.85
77331;BMP280;66405;48.328;7.820;2023-03-11T14:15:08;99249.97;;;27.10
77331;BMP280;66405;48.328;7.820;2023-03-11T14:17:33;99239.28;;;26.11
77331;BMP280;66405;48.328;7.820;2023-03-11T14:20:15;99260.00;;;25.65
77331;BMP280;66405;48.328;7.820;2023-03-11T14:22:47;99250.78;;;25.35
77331;BMP280;66405;48.328;7.820;2023-03-11T14:25:23;99253.19;;;25.93
77331;BMP280;66405;48.328;7.820;2023-03-11T14:27:54;99250.59;;;26.52
77331;BMP280;66405;48.328;7.820;2023-03-11T14:30:23;99261.06;;;27.29
77331;BMP280;66405;48.328;7.820;2023-03-11T14:33:19;99255.81;;;27.94
77331;BMP280;66405;48.328;7.820;2023-03-11T14:35:52;99243.59;;;28.09
77331;BMP280;66405;48.328;7.820;2023-03-11T14:38:41;99248.19;;;28.57
77331;BMP280;66405;48.328;7.820;2023-03-11T14:41:12;99236.97;;;28.89
77331;BMP280;66405;48.328;7.820;2023-03-11T14:43:44;99232.94;;;28.58
77331;BMP280;66405;48.328;7.820;2023-03-11T14:46:19;99226.81;;;28.07
77331;BMP280;66405;48.328;7.820;2023-03-11T14:48:45;99237.38;;;27.48
77331;BMP280;66405;48.328;7.820;2023-03-11T14:51:24;99232.47;;;26.78
77331;BMP280;66405;48.328;7.820;2023-03-11T14:56:42;99235.00;;;25.73
77331;BMP280;66405;48.328;7.820;2023-03-11T14:59:14;99246.75;;;25.11
77331;BMP280;66405;48.328;7.820;2023-03-11T15:01:46;99246.97;;;24.20
77331;BMP280;66405;48.328;7.820;2023-03-11T15:06:52;99253.59;;;22.51
77331;BMP280;66405;48.328;7.820;2023-03-11T15:09:20;99250.09;;;21.76
77331;BMP280;66405;48.328;7.820;2023-03-11T15:11:52;99256.41;;;20.84
77331;BMP280;66405;48.328;7.820;2023-03-11T15:14:33;99259.81;;;20.08
77331;BMP280;66405;48.328;7.820;2023-03-11T15:17:15;99260.78;;;19.30
77331;BMP280;66405;48.328;7.820;2023-03-11T15:19:42;99256.41;;;18.76
77331;BMP280;66405;48.328;7.820;2023-03-11T15:24:51;99262.03;;;17.22
77331;BMP280;66405;48.328;7.820;2023-03-11T15:27:31;99260.16;;;16.69
77331;BMP280;66405;48.328;7.820;2023-03-11T15:29:57;99267.22;;;16.37
77331;BMP280;66405;48.328;7.820;2023-03-11T15:35:20;99270.13;;;15.69
77331;BMP280;66405;48.328;7.820;2023-03-11T15:37:47;99267.63;;;15.37
77331;BMP280;66405;48.328;7.820;2023-03-11T15:45:52;99270.50;;;14.27
77331;BMP280;66405;48.328;7.820;2023-03-11T15:48:20;99281.38;;;13.90
77331;BMP280;66405;48.328;7.820;2023-03-11T15:50:54;99280.13;;;13.53
77331;BMP280;66405;48.328;7.820;2023-03-11T15:53:21;99282.34;;;13.29
77331;BMP280;66405;48.328;7.820;2023-03-11T15:55:47;99284.53;;;13.04
77331;BMP280;66405;48.328;7.820;2023-03-11T15:58:18;99277.56;;;12.77
77331;BMP280;66405;48.328;7.820;2023-03-11T16:00:51;99285.00;;;12.61
77331;BMP280;66405;48.328;7.820;2023-03-11T16:03:18;99289.06;;;12.51
77331;BMP280;66405;48.328;7.820;2023-03-11T16:05:44;99290.13;;;12.38
77331;BMP280;66405;48.328;7.820;2023-03-11T16:08:15;99295.78;;;12.20